Time;durP1;ratioP1;P1;durP2;ratioP2;P2;SDS_P1;SDS_P2;PMS_P1;PMS_P2;Temp;Humidity;BMP_temperature;BMP_pressure;BME280_temperature;BME280_humidity;BME280_pressure;Samples;Min_cycle;Max_cycle;Signal;HPM_P1;HPM_P2
2022/12/07 00:01:48;;;;;;;12.13;6.70;;;;;;;-6.02;86.98;101808.16;10382573;28;20041;-80
2022/12/07 00:06:52;;;;;;;12.73;7.13;;;;;;;-6.32;87.75;101746.59;10382000;28;20076;-80
2022/12/07 00:11:53;;;;;;;13.55;7.35;;;;;;;-6.20;87.36;101756.75;10376622;28;20041;-80
2022/12/07 00:16:54;;;;;;;12.65;7.10;;;;;;;-5.97;87.37;101815.84;10375614;28;20052;-81
2022/12/07 00:21:54;;;;;;;13.45;7.82;;;;;;;-6.30;88.66;101753.47;10376645;28;20093;-80
2022/12/07 00:26:55;;;;;;;16.20;8.27;;;;;;;-6.16;89.00;101781.69;10376206;28;20042;-79
2022/12/07 00:31:56;;;;;;;16.35;8.07;;;;;;;-6.13;90.00;101789.41;10376134;28;20045;-80
2022/12/07 00:36:57;;;;;;;16.48;8.02;;;;;;;-5.94;89.15;101810.63;10375591;28;20048;-80
2022/12/07 00:41:58;;;;;;;14.98;7.93;;;;;;;-6.39;90.42;101737.25;10374971;28;20125;-80
2022/12/07 00:46:59;;;;;;;14.73;7.93;;;;;;;-5.96;90.32;101791.66;10375614;28;20088;-79
2022/12/07 00:51:59;;;;;;;17.08;8.60;;;;;;;-6.03;90.88;101787.50;10374491;28;20073;-80
2022/12/07 00:57:00;;;;;;;13.68;6.80;;;;;;;-6.52;90.99;101693.53;10375252;28;20041;-80
2022/12/07 01:02:01;;;;;;;16.95;9.18;;;;;;;-5.83;90.89;101795.72;10374520;28;20037;-80
2022/12/07 01:07:01;;;;;;;19.65;8.50;;;;;;;-5.80;91.79;101793.09;10374484;28;20050;-80
2022/12/07 01:12:02;;;;;;;16.98;8.57;;;;;;;-5.81;91.63;101768.06;10374801;28;20042;-80
2022/12/07 01:17:03;;;;;;;18.15;8.70;;;;;;;-6.11;91.56;101698.81;10373600;28;20052;-80
2022/12/07 01:22:04;;;;;;;15.52;8.45;;;;;;;-5.67;91.67;101770.41;10373811;28;20482;-80
2022/12/07 01:27:05;;;;;;;17.75;9.18;;;;;;;-6.04;92.09;101701.28;10384526;28;20048;-80
2022/12/07 01:32:05;;;;;;;18.25;8.50;;;;;;;-5.51;92.37;101789.06;10372236;28;20045;-80
2022/12/07 01:37:06;;;;;;;17.38;8.90;;;;;;;-5.46;92.59;101774.31;10373301;28;20052;-80
2022/12/07 01:42:13;;;;;;;18.33;9.20;;;;;;;-5.49;92.93;101752.81;10405794;28;20071;-80
2022/12/07 01:47:13;;;;;;;22.35;10.88;;;;;;;-5.42;94.58;101790.63;10377056;28;20484;-79
2022/12/07 01:52:31;;;;;;;20.40;10.00;;;;;;;-5.48;95.51;101782.97;10372764;28;20093;-79
2022/12/07 01:57:36;;;;;;;21.40;11.20;;;;;;;-5.65;94.69;101745.34;10410958;28;20098;-79
2022/12/07 02:03:00;;;;;;;20.23;10.52;;;;;;;-5.68;95.77;101729.88;10412217;28;20042;-80
2022/12/07 02:08:02;;;;;;;25.40;11.98;;;;;;;-5.23;93.65;101784.22;10411133;28;20042;-80
2022/12/07 02:13:24;;;;;;;21.45;11.63;;;;;;;-5.70;93.97;101712.66;10372805;28;20103;-80
2022/12/07 02:18:43;;;;;;;22.42;11.77;;;;;;;-5.19;94.95;101779.81;10372245;28;20045;-80
2022/12/07 02:24:05;;;;;;;22.70;10.20;;;;;;;-5.20;94.44;101760.81;10372389;28;20402;-81
2022/12/07 02:29:33;;;;;;;24.40;11.73;;;;;;;-5.16;94.58;101770.22;10372146;28;20040;-79
2022/12/07 02:34:48;;;;;;;26.08;12.43;;;;;;;-5.31;94.90;101750.69;10385636;28;20117;-79
2022/12/07 02:39:57;;;;;;;26.42;13.02;;;;;;;-5.24;95.63;101756.56;10403600;28;20058;-79
2022/12/07 02:45:00;;;;;;;21.33;12.65;;;;;;;-5.47;96.61;101719.94;10412485;28;20103;-79
2022/12/07 02:50:04;;;;;;;26.30;13.13;;;;;;;-5.46;96.62;101739.78;10412517;28;20130;-79
2022/12/07 02:55:05;;;;;;;;;;;;;;;-5.26;95.24;101768.72;10413185;28;20044;-79
2022/12/07 03:00:16;;;;;;;24.70;10.95;;;;;;;-5.23;95.54;101778.19;10409756;28;19924;-82
2022/12/07 03:05:48;;;;;;;24.73;12.68;;;;;;;-5.17;95.66;101767.69;10400949;28;20042;-84
2022/12/07 03:11:09;;;;;;;24.25;11.07;;;;;;;-5.93;94.94;101633.78;10412516;28;20068;-84
2022/12/07 03:16:19;;;;;;;27.25;13.82;;;;;;;-5.15;96.03;101787.47;10410890;28;20091;-85
2022/12/07 03:21:42;;;;;;;26.83;14.40;;;;;;;-5.20;97.35;101775.53;10406121;28;20029;-84
2022/12/07 03:26:49;;;;;;;25.20;13.07;;;;;;;-5.41;97.26;101717.25;10411943;28;20075;-85
2022/12/07 03:32:01;;;;;;;27.55;13.50;;;;;;;-5.00;96.40;101780.25;10412491;28;20053;-84
2022/12/07 03:37:15;;;;;;;27.25;14.25;;;;;;;-5.33;96.21;101746.41;10382067;28;20129;-89
2022/12/07 03:42:16;;;;;;;23.55;12.63;;;;;;;-5.44;95.68;101738.88;10412352;28;20444;-81
2022/12/07 03:47:57;;;;;;;27.05;13.55;;;;;;;-5.11;96.95;101775.31;10418419;28;20108;-82
2022/12/07 03:53:04;;;;;;;26.92;14.15;;;;;;;-5.22;96.49;101759.16;10418538;28;20053;-79
2022/12/07 03:58:10;;;;;;;30.75;14.63;;;;;;;-5.26;96.57;101748.00;10416455;28;20552;-83
2022/12/07 04:03:11;;;;;;;28.33;14.68;;;;;;;-5.01;96.52;101776.81;10417461;28;20071;-78
2022/12/07 04:08:12;;;;;;;24.58;13.98;;;;;;;-5.08;96.91;101793.41;10416396;28;20059;-83
2022/12/07 04:13:13;;;;;;;33.35;15.05;;;;;;;-5.21;96.17;101764.28;10417552;28;20087;-78
2022/12/07 04:18:14;;;;;;;27.70;14.15;;;;;;;-5.58;96.03;101692.56;10417142;28;20554;-80
2022/12/07 04:23:14;;;;;;;30.48;14.30;;;;;;;-4.95;95.92;101788.78;10417048;28;20068;-80
2022/12/07 04:28:15;;;;;;;33.17;14.40;;;;;;;-4.95;95.84;101783.59;10415698;28;20068;-76
2022/12/07 04:33:16;;;;;;;27.63;13.35;;;;;;;-4.96;95.45;101768.97;10415993;28;20034;-81
2022/12/07 04:38:17;;;;;;;24.70;14.00;;;;;;;-4.81;95.80;101797.13;10415711;28;20103;-75
2022/12/07 04:43:17;;;;;;;24.98;13.73;;;;;;;-5.55;96.38;101678.69;10407309;28;20037;-85
2022/12/07 04:48:18;;;;;;;23.10;11.38;;;;;;;-4.97;95.60;101775.84;10388212;28;20148;-86
2022/12/07 04:53:19;;;;;;;29.00;12.85;;;;;;;-4.91;95.66;101777.47;10388054;28;20041;-87
2022/12/07 04:58:20;;;;;;;26.40;12.30;;;;;;;-4.87;95.59;101772.19;10378277;28;20037;-91
2022/12/07 05:03:20;;;;;;;28.00;12.70;;;;;;;-4.79;95.64;101772.00;10378975;28;20042;-90
2022/12/07 05:08:21;;;;;;;23.55;12.05;;;;;;;-4.57;95.56;101802.66;10378649;28;20042;-90
2022/12/07 05:13:22;;;;;;;29.25;12.85;;;;;;;-4.59;95.97;101800.06;10377942;28;20067;-91
2022/12/07 05:18:23;;;;;;;22.88;11.13;;;;;;;-4.67;95.76;101784.69;10378428;28;20096;-90
2022/12/07 05:23:24;;;;;;;19.92;10.57;;;;;;;-4.54;95.31;101789.59;10378190;28;20046;-89
2022/12/07 05:28:24;;;;;;;28.23;11.25;;;;;;;-4.63;95.81;101775.97;10376992;28;20521;-91
2022/12/07 05:33:25;;;;;;;20.63;11.68;;;;;;;-4.42;95.74;101804.88;10378642;28;20041;-93
2022/12/07 05:38:26;;;;;;;17.60;10.57;;;;;;;-4.75;96.20;101733.91;10378197;28;20041;-87
2022/12/07 05:43:27;;;;;;;19.40;10.80;;;;;;;-4.43;95.47;101783.28;10393613;28;20033;-91
2022/12/07 05:48:28;;;;;;;18.05;9.98;;;;;;;-4.36;96.07;101796.94;10377538;28;20557;-91
2022/12/07 05:53:28;;;;;;;17.33;9.02;;;;;;;-4.28;95.84;101782.03;10377017;28;20054;-90
2022/12/07 06:03:48;;;;;;;16.92;9.45;;;;;;;-4.67;96.03;101722.44;10376498;28;20050;-89
2022/12/07 06:08:49;;;;;;;18.13;10.00;;;;;;;-4.26;96.07;101774.22;10377022;28;20042;-92
2022/12/07 06:13:49;;;;;;;17.98;10.10;;;;;;;-4.31;96.26;101779.50;10376684;28;20132;-90
2022/12/07 06:18:50;;;;;;;18.42;9.63;;;;;;;-4.26;95.68;101779.41;10376386;28;20042;-91
2022/12/07 06:23:51;;;;;;;17.52;8.70;;;;;;;-4.25;95.29;101757.75;10376836;28;20038;-93
2022/12/07 06:28:52;;;;;;;17.02;8.90;;;;;;;-4.42;95.63;101737.44;10377106;28;20172;-91
2022/12/07 06:33:58;;;;;;;17.98;8.77;;;;;;;-4.49;94.73;101699.56;10376656;28;20042;-92
2022/12/07 06:38:59;;;;;;;16.95;8.52;;;;;;;-4.04;94.69;101777.09;10376699;28;20052;-90
2022/12/07 06:44:00;;;;;;;14.30;8.40;;;;;;;-4.13;95.21;101747.94;10376205;28;20832;-90
2022/12/07 06:49:01;;;;;;;16.58;8.13;;;;;;;-4.37;94.57;101707.03;10375864;28;20048;-90
2022/12/07 06:54:03;;;;;;;15.77;9.30;;;;;;;-4.82;94.53;101619.13;10375515;28;20109;-91
2022/12/07 06:59:06;;;;;;;13.38;7.28;;;;;;;-3.95;94.27;101784.66;10380205;28;20037;-91
2022/12/07 07:04:07;;;;;;;17.30;9.55;;;;;;;-3.95;94.01;101774.28;10384089;28;20402;-92
2022/12/07 07:09:09;;;;;;;14.13;8.98;;;;;;;-4.02;94.38;101772.75;10382338;28;20038;-90
2022/12/07 07:14:10;;;;;;;18.00;9.77;;;;;;;-4.00;94.67;101777.00;10382588;28;20124;-92
2022/12/07 07:19:10;;;;;;;14.52;7.63;;;;;;;-4.49;94.18;101671.03;10382801;28;20133;-89
2022/12/07 07:24:11;;;;;;;17.38;9.50;;;;;;;-4.41;94.47;101682.91;10381685;28;20049;-91
2022/12/07 07:29:12;;;;;;;19.02;10.07;;;;;;;-4.61;94.39;101654.91;10381716;28;20048;-90
2022/12/07 07:34:13;;;;;;;18.85;9.73;;;;;;;-4.24;94.44;101716.22;10381643;28;20038;-85
2022/12/07 07:39:13;;;;;;;16.33;9.50;;;;;;;-3.92;94.50;101762.09;10382155;28;20096;-88
2022/12/07 07:44:14;;;;;;;20.15;11.05;;;;;;;-4.44;93.95;101663.97;10381329;28;20410;-91
2022/12/07 07:49:15;;;;;;;17.88;11.00;;;;;;;-4.00;94.19;101730.28;10380453;28;20308;-90
2022/12/07 07:54:16;;;;;;;20.90;12.05;;;;;;;-4.03;94.82;101726.91;10381608;28;20049;-90
2022/12/07 07:59:17;;;;;;;20.90;11.15;;;;;;;-4.30;95.00;101672.25;10382015;28;20132;-87
2022/12/07 08:04:17;;;;;;;21.20;11.07;;;;;;;-4.76;94.29;101574.91;10381954;28;20037;-91
2022/12/07 08:09:18;;;;;;;24.83;12.40;;;;;;;-3.83;94.16;101715.97;10379999;28;20136;-92
2022/12/07 08:14:19;;;;;;;26.63;12.98;;;;;;;-3.89;94.27;101688.44;10379958;28;20042;-91
2022/12/07 08:19:20;;;;;;;22.10;12.88;;;;;;;-3.69;94.31;101708.66;10380737;28;20045;-92
2022/12/07 08:24:21;;;;;;;29.33;14.48;;;;;;;-3.67;93.98;101699.94;10379531;28;20516;-91
2022/12/07 08:29:21;;;;;;;23.83;14.05;;;;;;;-3.95;94.24;101657.47;10379855;28;20048;-91
2022/12/07 08:34:22;;;;;;;27.77;15.25;;;;;;;-4.11;94.79;101614.69;10377865;28;20046;-91
2022/12/07 08:39:23;;;;;;;26.98;13.98;;;;;;;-4.05;94.49;101596.34;10380624;28;20053;-92
2022/12/07 08:44:24;;;;;;;23.35;13.40;;;;;;;-3.42;94.25;101677.59;10379843;28;20058;-90
2022/12/07 08:49:47;;;;;;;26.38;14.30;;;;;;;-3.36;94.69;101654.03;10380167;28;20042;-93
2022/12/07 08:54:48;;;;;;;24.02;12.80;;;;;;;-3.38;94.68;101630.69;10377515;28;20080;-90
2022/12/07 08:59:49;;;;;;;25.92;11.18;;;;;;;-3.63;93.65;101551.81;10376590;28;20495;-90
2022/12/07 09:04:50;;;;;;;23.92;11.30;;;;;;;-3.11;93.37;101612.50;10376703;28;20120;-90
2022/12/07 09:09:50;;;;;;;21.10;12.00;;;;;;;-3.03;93.11;101616.56;10376863;28;20129;-90
2022/12/07 09:14:51;;;;;;;25.73;11.13;;;;;;;-3.23;93.46;101578.25;10377626;28;20046;-92
2022/12/07 09:19:52;;;;;;;22.17;12.02;;;;;;;-2.68;93.56;101645.75;10375563;28;20041;-95
2022/12/07 09:24:53;;;;;;;19.60;10.85;;;;;;;-3.28;92.66;101540.31;10375437;28;20470;-91
2022/12/07 09:29:54;;;;;;;23.50;10.50;;;;;;;-3.07;93.40;101572.53;10376653;28;20125;-92
2022/12/07 09:34:55;;;;;;;17.88;10.68;;;;;;;-2.82;92.94;101594.19;10376784;28;20067;-92
2022/12/07 09:39:56;;;;;;;15.73;9.43;;;;;;;-2.70;93.07;101592.09;10377189;28;20038;-91
2022/12/07 09:44:58;;;;;;;17.08;8.77;;;;;;;-2.56;92.83;101592.47;10377542;28;20145;-91
2022/12/07 09:50:05;;;;;;;18.30;9.05;;;;;;;-2.24;93.09;101612.16;10377752;28;20103;-91
2022/12/07 09:55:15;;;;;;;15.93;8.05;;;;;;;-2.95;92.57;101483.72;10377137;28;20092;-94
2022/12/07 10:00:21;;;;;;;13.75;7.85;;;;;;;-2.14;92.36;101615.28;10377170;28;20469;-90
2022/12/07 10:05:30;;;;;;;14.10;7.95;;;;;;;-2.12;92.65;101622.13;10376716;28;20041;-91
2022/12/07 10:10:33;;;;;;;18.85;7.38;;;;;;;-3.06;91.84;101468.50;10375328;28;20045;-93
2022/12/07 10:15:54;;;;;;;12.30;6.90;;;;;;;-2.88;92.97;101473.94;10376331;28;20092;-93
2022/12/07 10:21:13;;;;;;;15.70;7.63;;;;;;;-1.94;93.61;101612.81;10375024;28;20045;-89
2022/12/07 10:26:28;;;;;;;11.75;6.90;;;;;;;-2.37;93.94;101510.22;10377436;28;20042;-92
2022/12/07 10:31:29;;;;;;;14.65;6.88;;;;;;;-1.94;93.89;101567.69;10377039;28;20041;-93
2022/12/07 10:36:38;;;;;;;13.02;6.10;;;;;;;-1.66;94.55;101614.34;10383762;28;20046;-91
2022/12/07 10:41:59;;;;;;;19.45;6.15;;;;;;;-1.47;94.29;101598.84;10383505;28;20092;-94
2022/12/07 10:47:04;;;;;;;12.40;6.50;;;;;;;-1.59;93.86;101592.34;10384123;28;20081;-93
2022/12/07 10:52:20;;;;;;;15.20;6.63;;;;;;;-2.01;95.64;101512.34;10384815;28;20038;-92
2022/12/07 10:57:29;;;;;;;14.30;6.43;;;;;;;-1.47;95.32;101584.06;10382675;28;20046;-91
2022/12/07 11:02:48;;;;;;;15.32;6.75;;;;;;;-1.37;94.96;101581.97;10382879;28;20030;-93
2022/12/07 11:08:14;;;;;;;15.27;6.20;;;;;;;-1.48;95.02;101566.72;10384055;28;20042;-89
2022/12/07 11:13:37;;;;;;;11.30;5.88;;;;;;;-2.21;95.93;101448.06;10384227;28;20061;-93
2022/12/07 11:18:40;;;;;;;15.68;6.47;;;;;;;-1.50;96.42;101594.59;10386373;28;20088;-92
2022/12/07 11:23:53;;;;;;;15.02;6.30;;;;;;;-1.51;97.59;101589.47;10388560;28;20060;-88
2022/12/07 11:29:27;;;;;;;20.55;9.07;;;;;;;-1.55;97.59;101590.50;10398265;28;20038;-87
2022/12/07 11:34:54;;;;;;;17.17;6.53;;;;;;;-2.39;97.48;101451.38;10406100;28;20493;-93
2022/12/07 11:40:01;;;;;;;25.15;9.10;;;;;;;-1.84;97.01;101524.75;10387240;28;20159;-93
2022/12/07 11:45:37;;;;;;;13.85;6.50;;;;;;;-1.51;97.44;101556.44;10381143;28;20496;-93
2022/12/07 11:50:42;;;;;;;17.23;6.57;;;;;;;-1.48;96.96;101576.31;10370476;28;20502;-91
2022/12/07 11:56:08;;;;;;;19.52;6.50;;;;;;;-1.92;97.65;101504.19;10382543;28;20053;-92
2022/12/07 12:01:30;;;;;;;16.48;6.43;;;;;;;-1.73;96.94;101532.16;10381075;28;20046;-92
2022/12/07 12:06:31;;;;;;;25.02;9.25;;;;;;;-2.38;97.79;101451.28;10381503;28;20482;-92
2022/12/07 12:12:00;;;;;;;25.98;7.95;;;;;;;-1.56;99.03;101591.41;10381633;28;20037;-92
2022/12/07 12:17:07;;;;;;;18.45;7.30;;;;;;;-1.56;98.97;101576.59;10380954;28;20045;-91
2022/12/07 12:22:20;;;;;;;12.93;6.85;;;;;;;-1.49;99.04;101569.41;10381716;28;20042;-94
2022/12/07 12:27:26;;;;;;;13.95;7.00;;;;;;;-1.48;98.75;101566.72;10379083;28;20038;-88
2022/12/07 12:32:40;;;;;;;15.65;7.47;;;;;;;-1.57;99.14;101538.44;10406416;28;20386;-88
2022/12/07 12:37:42;;;;;;;15.38;7.43;;;;;;;-1.71;98.84;101506.88;10384359;28;20072;-86
2022/12/07 12:42:57;;;;;;;22.80;7.60;;;;;;;-2.22;99.59;101427.28;10377426;28;20069;-84
2022/12/07 12:48:24;;;;;;;18.08;6.93;;;;;;;-1.59;99.99;101545.47;10388263;28;20153;-83
2022/12/07 12:53:27;;;;;;;25.88;8.63;;;;;;;-1.99;99.64;101478.47;10416076;28;20048;-90
2022/12/07 12:58:34;;;;;;;21.90;11.20;;;;;;;-1.84;100.00;101503.91;10415766;28;20045;-85
2022/12/07 13:03:35;;;;;;;16.58;8.15;;;;;;;-1.46;100.00;101569.28;10395510;28;20049;-92
2022/12/07 13:08:41;;;;;;;20.20;7.65;;;;;;;-1.46;100.00;101558.88;10418492;28;20069;-87
2022/12/07 13:13:42;;;;;;;29.25;10.57;;;;;;;-2.14;100.00;101453.88;10420147;28;20045;-93
2022/12/07 13:18:44;;;;;;;22.13;9.25;;;;;;;-1.91;100.00;101495.50;10389529;28;20056;-83
2022/12/07 13:23:44;;;;;;;17.58;8.20;;;;;;;-1.84;100.00;101511.72;10374770;28;20038;-82
2022/12/07 13:28:52;;;;;;;22.95;8.02;;;;;;;-1.47;100.00;101572.78;10375350;28;20136;-83
2022/12/07 13:33:53;;;;;;;15.38;8.23;;;;;;;-1.65;100.00;101540.50;10415338;28;20046;-83
2022/12/07 13:38:59;;;;;;;19.60;8.13;;;;;;;-1.85;100.00;101495.25;10415262;28;20045;-82
2022/12/07 13:44:12;;;;;;;19.23;8.63;;;;;;;-1.58;100.00;101544.56;10415184;28;20053;-82
2022/12/07 13:49:21;;;;;;;16.98;8.57;;;;;;;-1.61;100.00;101535.13;10415821;28;20493;-82
2022/12/07 13:54:22;;;;;;;15.52;8.40;;;;;;;-1.56;100.00;101541.88;10414417;28;20103;-82
2022/12/07 13:59:25;;;;;;;29.35;8.85;;;;;;;-1.93;100.00;101486.88;10414805;28;20041;-82
2022/12/07 14:04:37;;;;;;;16.38;8.88;;;;;;;-1.47;100.00;101560.59;10414429;28;20041;-83
2022/12/07 14:09:38;;;;;;;17.58;8.18;;;;;;;-1.66;100.00;101546.63;10412878;28;20037;-84
2022/12/07 14:14:47;;;;;;;29.90;8.93;;;;;;;-1.55;100.00;101567.91;10415071;28;20049;-84
2022/12/07 14:19:57;;;;;;;20.30;7.85;;;;;;;-1.52;100.00;101569.53;10413247;28;20095;-83
2022/12/07 14:25:13;;;;;;;27.92;8.77;;;;;;;-1.51;100.00;101572.06;10414093;28;20042;-83
2022/12/07 14:30:18;;;;;;;20.90;8.73;;;;;;;-2.01;100.00;101512.34;10414038;28;20094;-84
2022/12/07 14:35:19;;;;;;;19.08;8.90;;;;;;;-2.03;100.00;101508.97;10413866;28;20497;-87
2022/12/07 14:40:27;;;;;;;33.60;9.43;;;;;;;-1.75;100.00;101541.78;10413919;28;20099;-83
2022/12/07 14:45:28;;;;;;;18.65;8.00;;;;;;;-1.78;100.00;101549.72;10407388;28;20049;-86
2022/12/07 14:50:29;;;;;;;28.48;8.98;;;;;;;-1.80;100.00;101544.53;10413737;28;20135;-82
2022/12/07 14:55:31;;;;;;;25.33;8.82;;;;;;;-1.96;100.00;101505.22;10414031;28;20135;-92
2022/12/07 15:00:34;;;;;;;24.50;8.40;;;;;;;-1.97;100.00;101521.78;10411508;28;20529;-80
2022/12/07 15:05:36;;;;;;;15.13;7.78;;;;;;;-1.56;100.00;101594.84;10453404;28;20061;-83
2022/12/07 15:10:38;;;;;;;16.98;7.18;;;;;;;-2.05;100.00;101513.41;10454032;28;20033;-84
2022/12/07 15:15:39;;;;;;;21.35;7.93;;;;;;;-1.77;100.00;101548.78;10469851;28;20496;-92
2022/12/07 15:20:40;;;;;;;25.25;7.60;;;;;;;-1.55;100.00;101585.28;10460725;28;20037;-82
2022/12/07 15:25:45;;;;;;;15.75;7.85;;;;;;;-1.59;100.00;101583.69;10453930;28;20453;-88
2022/12/07 15:30:46;;;;;;;17.58;6.90;;;;;;;-1.95;100.00;101532.94;10420971;28;20405;-86
2022/12/07 15:35:47;;;;;;;15.43;6.55;;;;;;;-1.61;100.00;101588.97;10434517;28;20051;-91
2022/12/07 15:40:48;;;;;;;21.77;6.82;;;;;;;-1.62;100.00;101579.44;10440530;28;20726;-83
2022/12/07 15:45:50;;;;;;;19.13;6.50;;;;;;;-1.69;100.00;101568.44;10449366;28;20774;-80
2022/12/07 15:50:51;;;;;;;20.38;6.43;;;;;;;-1.45;100.00;101603.09;10455548;28;20036;-81
2022/12/07 15:55:51;;;;;;;15.43;5.80;;;;;;;-1.42;100.00;101594.31;10454625;28;20519;-82
2022/12/07 16:00:53;;;;;;;16.67;6.25;;;;;;;-1.48;100.00;101590.19;10449428;28;20047;-84
2022/12/07 16:05:53;;;;;;;12.25;6.22;;;;;;;-1.66;100.00;101572.69;10455672;28;20389;-93
2022/12/07 16:10:54;;;;;;;10.40;5.40;;;;;;;-1.59;100.00;101562.84;10460603;28;20037;-83
2022/12/07 16:15:55;;;;;;;11.05;5.53;;;;;;;-1.50;100.00;101563.34;10452625;28;20045;-80
2022/12/07 16:20:55;;;;;;;14.27;6.15;;;;;;;-1.97;100.00;101510.50;10430059;28;20052;-88
2022/12/07 16:26:12;;;;;;;17.08;6.65;;;;;;;-1.61;100.00;101565.53;10458983;28;20409;-84
2022/12/07 16:31:17;;;;;;;15.45;6.68;;;;;;;-1.61;100.00;101562.94;10457224;28;20049;-86
2022/12/07 16:36:21;;;;;;;15.35;6.50;;;;;;;-1.73;100.00;101545.19;10458151;28;20048;-77
2022/12/07 16:41:22;;;;;;;21.77;6.07;;;;;;;-1.73;100.00;101571.22;10457986;28;20122;-78
2022/12/07 16:46:23;;;;;;;13.48;6.57;;;;;;;-2.23;100.00;101473.28;10456176;28;20088;-79
2022/12/07 16:51:24;;;;;;;12.82;6.90;;;;;;;-2.03;100.00;101508.09;10444169;28;20047;-79
2022/12/07 16:56:26;;;;;;;11.68;6.55;;;;;;;-2.32;100.00;101460.63;10438694;28;20051;-79
2022/12/07 17:01:29;;;;;;;15.35;7.00;;;;;;;-1.77;100.00;101559.22;10457837;28;20079;-84
2022/12/07 17:06:30;;;;;;;11.57;7.03;;;;;;;-2.13;100.00;101499.81;10456515;28;20051;-83
2022/12/07 17:11:31;;;;;;;17.42;6.97;;;;;;;-1.93;100.00;101538.97;10456418;28;20037;-86
2022/12/07 17:16:32;;;;;;;15.40;7.32;;;;;;;-2.21;100.00;101488.88;10456934;28;20746;-84
2022/12/07 17:21:33;;;;;;;15.15;7.18;;;;;;;-2.25;100.00;101476.84;10456922;28;20139;-82
2022/12/07 17:26:34;;;;;;;13.35;6.85;;;;;;;-1.78;100.00;101562.72;10459413;28;20207;-86
2022/12/07 17:31:36;;;;;;;12.77;5.88;;;;;;;-1.75;100.00;101573.03;10457370;28;20128;-81
2022/12/07 17:36:37;;;;;;;12.65;6.15;;;;;;;-1.81;100.00;101571.50;10448694;28;20041;-87
2022/12/07 17:46:58;;;;;;;15.50;6.35;;;;;;;-2.49;100.00;101444.78;10416291;28;20057;-87
2022/12/07 17:57:18;;;;;;;12.23;6.75;;;;;;;-2.48;100.00;101434.34;10415257;28;20381;-86
2022/12/07 18:02:19;;;;;;;13.30;6.88;;;;;;;-1.80;100.00;101544.53;10428890;28;20045;-88
2022/12/07 18:07:20;;;;;;;17.67;8.05;;;;;;;-2.21;100.00;101487.09;10439687;28;20504;-89
2022/12/07 18:12:21;;;;;;;15.35;7.35;;;;;;;-1.73;100.00;101545.19;10457301;28;20040;-85
2022/12/07 18:17:21;;;;;;;12.70;6.85;;;;;;;-1.83;100.00;101519.44;10473238;28;20052;-89
2022/12/07 18:22:22;;;;;;;12.20;5.95;;;;;;;-1.69;100.00;101537.16;10474875;28;20119;-89
2022/12/07 18:27:23;;;;;;;13.23;6.47;;;;;;;-2.57;100.00;101383.50;10470969;28;20413;-86
2022/12/07 18:32:24;;;;;;;8.90;5.35;;;;;;;-1.64;100.00;101529.19;10468404;28;20068;-85
2022/12/07 18:37:26;;;;;;;12.23;6.55;;;;;;;-1.98;100.00;101469.72;10455890;28;20045;-88
2022/12/07 18:42:27;;;;;;;12.57;6.03;;;;;;;-1.70;100.00;101519.84;10428489;28;20095;-88
2022/12/07 18:47:27;;;;;;;12.00;6.18;;;;;;;-1.91;100.00;101477.25;10417560;28;20111;-87
2022/12/07 18:52:28;;;;;;;12.10;6.28;;;;;;;-1.62;100.00;101527.34;10416937;28;20037;-86
2022/12/07 18:57:32;;;;;;;11.85;6.70;;;;;;;-2.17;100.00;101431.41;10436255;28;20049;-85
2022/12/07 19:02:34;;;;;;;11.68;5.80;;;;;;;-1.61;100.00;101522.09;10463200;28;20036;-84
2022/12/07 19:07:35;;;;;;;11.00;5.18;;;;;;;-1.58;100.00;101517.66;10463385;28;20041;-80
2022/12/07 19:12:36;;;;;;;11.38;5.90;;;;;;;-2.17;100.00;101426.19;10461117;28;20055;-80
2022/12/07 19:17:37;;;;;;;10.82;6.20;;;;;;;-1.58;100.00;101522.88;10460777;28;20032;-81
2022/12/07 19:22:38;;;;;;;11.55;6.25;;;;;;;-2.24;100.00;101416.94;10460990;28;20051;-80
2022/12/07 19:27:39;;;;;;;10.65;5.63;;;;;;;-1.92;100.00;101467.72;10462086;28;20049;-81
2022/12/07 19:32:39;;;;;;;12.60;5.68;;;;;;;-1.95;100.00;101465.25;10476015;28;20041;-81
2022/12/07 19:37:40;;;;;;;8.18;5.53;;;;;;;-1.76;100.00;101483.63;10456557;28;20065;-82
2022/12/07 19:42:41;;;;;;;8.18;4.55;;;;;;;-1.66;100.00;101486.69;10431383;28;20060;-81
2022/12/07 19:47:42;;;;;;;9.35;5.05;;;;;;;-1.53;100.00;101500.91;10419528;28;20140;-82
2022/12/07 19:52:43;;;;;;;10.48;5.20;;;;;;;-1.39;100.00;101521.22;10450278;28;20503;-81
2022/12/07 19:57:43;;;;;;;10.90;5.20;;;;;;;-1.80;100.00;101444.72;10459066;28;20048;-79
2022/12/07 20:02:44;;;;;;;9.27;4.32;;;;;;;-1.76;100.00;101451.53;10458793;28;20033;-81
2022/12/07 20:07:45;;;;;;;8.30;4.45;;;;;;;-1.38;100.00;101515.94;10457772;28;20040;-81
2022/12/07 20:18:05;;;;;;;8.07;4.03;;;;;;;-1.38;100.00;101482.06;10418019;28;20045;-82
2022/12/07 20:23:05;;;;;;;8.77;4.28;;;;;;;-1.22;100.00;101515.31;10416906;28;20037;-82
2022/12/07 20:28:06;;;;;;;8.20;4.03;;;;;;;-1.18;100.00;101514.25;10417030;28;20045;-80
2022/12/07 20:33:07;;;;;;;6.55;3.88;;;;;;;-1.20;100.00;101505.66;10417476;28;20037;-79
2022/12/07 20:38:10;;;;;;;8.80;3.58;;;;;;;-1.19;100.00;101487.34;10415771;28;20041;-81
2022/12/07 20:43:10;;;;;;;8.45;3.25;;;;;;;-1.10;100.00;101500.91;10415099;28;20037;-80
2022/12/07 20:48:11;;;;;;;7.50;3.13;;;;;;;-1.13;100.00;101511.47;10415582;28;20049;-81
2022/12/07 20:53:12;;;;;;;6.80;3.10;;;;;;;-1.27;100.00;101480.75;10416551;28;20053;-82
2022/12/07 20:58:13;;;;;;;6.55;2.85;;;;;;;-1.24;100.00;101481.47;10448486;28;20091;-81
2022/12/07 21:03:14;;;;;;;6.70;3.45;;;;;;;-1.15;100.00;101490.66;10442119;28;20037;-80
2022/12/07 21:08:15;;;;;;;9.68;3.80;;;;;;;-1.76;100.00;101396.81;10456485;28;20095;-80
2022/12/07 21:13:15;;;;;;;8.60;4.15;;;;;;;-1.54;100.00;101431.47;10456456;28;20136;-80
2022/12/07 21:18:16;;;;;;;10.23;4.18;;;;;;;-1.29;100.00;101477.34;10455633;28;20045;-80
2022/12/07 21:23:17;;;;;;;7.13;3.78;;;;;;;-1.38;100.00;101473.38;10455607;28;20453;-82
2022/12/07 21:28:18;;;;;;;6.90;3.10;;;;;;;-1.22;100.00;101491.84;10455365;28;20475;-80
2022/12/07 21:33:18;;;;;;;6.97;3.83;;;;;;;-1.27;100.00;101496.41;10455669;28;20478;-80
2022/12/07 21:38:19;;;;;;;9.48;3.17;;;;;;;-1.30;100.00;101486.09;10455414;28;20499;-81
2022/12/07 21:43:20;;;;;;;6.82;2.92;;;;;;;-1.34;100.00;101476.72;10456227;28;20484;-81
2022/12/07 21:48:21;;;;;;;6.70;3.60;;;;;;;-1.23;100.00;101497.97;10455726;28;20057;-81
2022/12/07 21:53:22;;;;;;;13.35;3.92;;;;;;;-1.85;100.00;101391.06;10454457;28;20475;-79
2022/12/07 21:58:22;;;;;;;8.65;3.50;;;;;;;-1.67;100.00;101420.72;10455137;28;20511;-81
2022/12/07 22:03:23;;;;;;;6.75;2.97;;;;;;;-1.21;100.00;101498.75;10454572;28;20488;-80
2022/12/07 22:08:24;;;;;;;5.28;3.15;;;;;;;-1.72;100.00;101416.59;10452796;28;20041;-80
2022/12/07 22:15:04;;;;;;;6.05;3.08;;;;;;;-1.56;100.00;101441.09;10454045;28;20414;-80
2022/12/07 22:18:45;;;;;;;5.90;2.67;;;;;;;-1.10;100.00;101506.97;10454663;28;20469;-81
2022/12/07 22:23:46;;;;;;;6.13;3.10;;;;;;;-1.06;100.00;101505.94;10453654;28;20047;-81
2022/12/07 22:28:47;;;;;;;7.93;3.40;;;;;;;-1.03;100.00;101515.38;10459058;28;20407;-81
2022/12/07 22:33:49;;;;;;;8.82;3.40;;;;;;;-1.02;100.00;101517.06;10462834;28;20127;-81
2022/12/07 22:38:50;;;;;;;7.38;3.33;;;;;;;-1.25;100.00;101482.41;10462001;28;20041;-81
2022/12/07 22:43:51;;;;;;;5.72;3.42;;;;;;;-1.05;100.00;101505.00;10461341;28;20408;-81
2022/12/07 22:48:52;;;;;;;8.05;3.45;;;;;;;-1.18;100.00;101493.41;10462644;28;20052;-79
2022/12/07 22:53:53;;;;;;;5.68;3.30;;;;;;;-1.03;100.00;101505.78;10462827;28;20533;-81
2022/12/07 22:58:55;;;;;;;11.73;3.65;;;;;;;-1.54;100.00;101425.41;10461119;28;20412;-81
2022/12/07 23:03:56;;;;;;;8.25;3.17;;;;;;;-1.04;100.00;101503.28;10461182;28;20120;-81
2022/12/07 23:09:03;;;;;;;9.02;3.53;;;;;;;-1.06;100.00;101505.94;10462570;28;20132;-80
2022/12/07 23:14:09;;;;;;;8.90;3.42;;;;;;;-1.01;100.00;101516.19;10460387;28;20040;-79